sensor_id;sensor_type;location;lat;lon;timestamp;P1;durP1;ratioP1;P2;durP2;ratioP2
59734;SDS011;64362;45.620;4.920;2022-12-05T00:03:56;6.07;;;3.78;;
59734;SDS011;64362;45.620;4.920;2022-12-05T00:06:26;7.47;;;3.92;;
59734;SDS011;64362;45.620;4.920;2022-12-05T00:08:52;5.90;;;4.00;;
59734;SDS011;64362;45.620;4.920;2022-12-05T00:11:22;5.60;;;3.80;;
59734;SDS011;64362;45.620;4.920;2022-12-05T00:13:51;7.75;;;3.97;;
59734;SDS011;64362;45.620;4.920;2022-12-05T00:16:18;5.70;;;3.80;;
59734;SDS011;64362;45.620;4.920;2022-12-05T00:18:44;6.40;;;4.07;;
59734;SDS011;64362;45.620;4.920;2022-12-05T00:21:20;5.75;;;3.65;;
59734;SDS011;64362;45.620;4.920;2022-12-05T00:23:46;4.80;;;3.17;;
59734;SDS011;64362;45.620;4.920;2022-12-05T00:26:12;4.90;;;3.30;;
59734;SDS011;64362;45.620;4.920;2022-12-05T00:28:38;4.88;;;3.90;;
59734;SDS011;64362;45.620;4.920;2022-12-05T00:31:05;6.75;;;3.83;;
59734;SDS011;64362;45.620;4.920;2022-12-05T00:33:35;6.60;;;3.97;;
59734;SDS011;64362;45.620;4.920;2022-12-05T00:36:01;5.25;;;3.67;;
59734;SDS011;64362;45.620;4.920;2022-12-05T00:38:31;7.15;;;4.10;;
59734;SDS011;64362;45.620;4.920;2022-12-05T00:41:01;5.93;;;3.50;;
59734;SDS011;64362;45.620;4.920;2022-12-05T00:43:30;5.50;;;3.42;;
59734;SDS011;64362;45.620;4.920;2022-12-05T00:45:59;5.38;;;3.58;;
59734;SDS011;64362;45.620;4.920;2022-12-05T00:48:26;4.38;;;3.38;;
59734;SDS011;64362;45.620;4.920;2022-12-05T00:50:58;4.72;;;3.50;;
59734;SDS011;64362;45.620;4.920;2022-12-05T00:53:25;4.78;;;3.78;;
59734;SDS011;64362;45.620;4.920;2022-12-05T00:55:50;4.05;;;3.15;;
59734;SDS011;64362;45.620;4.920;2022-12-05T00:58:16;5.22;;;3.60;;
59734;SDS011;64362;45.620;4.920;2022-12-05T01:00:41;5.50;;;3.40;;
59734;SDS011;64362;45.620;4.920;2022-12-05T01:03:06;4.57;;;3.55;;
59734;SDS011;64362;45.620;4.920;2022-12-05T01:05:32;4.85;;;3.35;;
59734;SDS011;64362;45.620;4.920;2022-12-05T01:07:58;5.90;;;3.50;;
59734;SDS011;64362;45.620;4.920;2022-12-05T01:10:23;5.40;;;3.35;;
59734;SDS011;64362;45.620;4.920;2022-12-05T01:12:49;6.18;;;3.47;;
59734;SDS011;64362;45.620;4.920;2022-12-05T01:15:14;5.53;;;3.50;;
59734;SDS011;64362;45.620;4.920;2022-12-05T01:17:40;3.95;;;3.42;;
59734;SDS011;64362;45.620;4.920;2022-12-05T01:20:06;4.82;;;3.45;;
59734;SDS011;64362;45.620;4.920;2022-12-05T01:22:31;4.60;;;3.30;;
59734;SDS011;64362;45.620;4.920;2022-12-05T01:24:57;4.22;;;3.40;;
59734;SDS011;64362;45.620;4.920;2022-12-05T01:27:22;4.78;;;3.40;;
59734;SDS011;64362;45.620;4.920;2022-12-05T01:29:48;5.07;;;3.17;;
59734;SDS011;64362;45.620;4.920;2022-12-05T01:32:14;4.63;;;3.17;;
59734;SDS011;64362;45.620;4.920;2022-12-05T01:34:39;4.57;;;3.55;;
59734;SDS011;64362;45.620;4.920;2022-12-05T01:37:05;4.00;;;3.40;;
59734;SDS011;64362;45.620;4.920;2022-12-05T01:39:30;4.40;;;3.28;;
59734;SDS011;64362;45.620;4.920;2022-12-05T01:41:56;4.82;;;3.47;;
59734;SDS011;64362;45.620;4.920;2022-12-05T01:46:48;4.63;;;3.25;;
59734;SDS011;64362;45.620;4.920;2022-12-05T01:49:19;4.43;;;3.47;;
59734;SDS011;64362;45.620;4.920;2022-12-05T01:51:51;4.40;;;3.13;;
59734;SDS011;64362;45.620;4.920;2022-12-05T01:54:18;3.80;;;3.13;;
59734;SDS011;64362;45.620;4.920;2022-12-05T01:56:47;5.00;;;3.08;;
59734;SDS011;64362;45.620;4.920;2022-12-05T01:59:15;3.78;;;2.92;;
59734;SDS011;64362;45.620;4.920;2022-12-05T02:01:41;4.25;;;3.40;;
59734;SDS011;64362;45.620;4.920;2022-12-05T02:04:07;4.47;;;3.60;;
59734;SDS011;64362;45.620;4.920;2022-12-05T02:06:33;6.18;;;3.65;;
59734;SDS011;64362;45.620;4.920;2022-12-05T02:08:58;4.72;;;3.33;;
59734;SDS011;64362;45.620;4.920;2022-12-05T02:11:24;4.45;;;3.45;;
59734;SDS011;64362;45.620;4.920;2022-12-05T02:14:04;3.88;;;3.28;;
59734;SDS011;64362;45.620;4.920;2022-12-05T02:19:46;4.00;;;3.20;;
59734;SDS011;64362;45.620;4.920;2022-12-05T02:30:26;5.68;;;3.33;;
59734;SDS011;64362;45.620;4.920;2022-12-05T02:46:35;4.57;;;3.30;;
59734;SDS011;64362;45.620;4.920;2022-12-05T02:49:03;5.05;;;3.42;;
59734;SDS011;64362;45.620;4.920;2022-12-05T02:51:32;4.88;;;3.50;;
59734;SDS011;64362;45.620;4.920;2022-12-05T02:54:01;3.78;;;3.38;;
59734;SDS011;64362;45.620;4.920;2022-12-05T02:56:28;5.60;;;3.63;;
59734;SDS011;64362;45.620;4.920;2022-12-05T02:58:54;5.43;;;3.70;;
59734;SDS011;64362;45.620;4.920;2022-12-05T03:01:20;5.68;;;3.53;;
59734;SDS011;64362;45.620;4.920;2022-12-05T03:03:48;5.35;;;3.83;;
59734;SDS011;64362;45.620;4.920;2022-12-05T03:06:18;8.00;;;3.70;;
59734;SDS011;64362;45.620;4.920;2022-12-05T03:09:08;4.18;;;3.33;;
59734;SDS011;64362;45.620;4.920;2022-12-05T03:11:41;5.47;;;3.55;;
59734;SDS011;64362;45.620;4.920;2022-12-05T03:14:14;4.30;;;3.70;;
59734;SDS011;64362;45.620;4.920;2022-12-05T03:16:43;4.43;;;3.10;;
59734;SDS011;64362;45.620;4.920;2022-12-05T03:19:11;4.65;;;3.00;;
59734;SDS011;64362;45.620;4.920;2022-12-05T03:22:14;4.60;;;3.40;;
59734;SDS011;64362;45.620;4.920;2022-12-05T03:24:45;4.18;;;3.47;;
59734;SDS011;64362;45.620;4.920;2022-12-05T03:32:29;4.45;;;3.10;;
59734;SDS011;64362;45.620;4.920;2022-12-05T03:38:10;5.38;;;4.05;;
59734;SDS011;64362;45.620;4.920;2022-12-05T03:40:48;3.70;;;3.03;;
59734;SDS011;64362;45.620;4.920;2022-12-05T03:46:10;4.25;;;3.40;;
59734;SDS011;64362;45.620;4.920;2022-12-05T03:51:31;4.68;;;3.30;;
59734;SDS011;64362;45.620;4.920;2022-12-05T03:54:01;4.80;;;4.03;;
59734;SDS011;64362;45.620;4.920;2022-12-05T03:56:33;4.85;;;3.30;;
59734;SDS011;64362;45.620;4.920;2022-12-05T03:59:04;4.60;;;3.60;;
59734;SDS011;64362;45.620;4.920;2022-12-05T04:01:44;4.78;;;3.42;;
59734;SDS011;64362;45.620;4.920;2022-12-05T04:04:20;4.05;;;3.35;;
59734;SDS011;64362;45.620;4.920;2022-12-05T04:06:50;4.72;;;3.63;;
59734;SDS011;64362;45.620;4.920;2022-12-05T04:09:22;5.07;;;3.65;;
59734;SDS011;64362;45.620;4.920;2022-12-05T04:11:53;6.45;;;3.80;;
59734;SDS011;64362;45.620;4.920;2022-12-05T04:14:24;4.60;;;3.55;;
59734;SDS011;64362;45.620;4.920;2022-12-05T04:16:57;5.35;;;3.50;;
59734;SDS011;64362;45.620;4.920;2022-12-05T04:22:33;5.40;;;3.80;;
59734;SDS011;64362;45.620;4.920;2022-12-05T04:24:59;5.05;;;3.85;;
59734;SDS011;64362;45.620;4.920;2022-12-05T04:30:20;5.75;;;3.70;;
59734;SDS011;64362;45.620;4.920;2022-12-05T04:38:29;5.82;;;3.60;;
59734;SDS011;64362;45.620;4.920;2022-12-05T04:41:32;8.15;;;3.60;;
59734;SDS011;64362;45.620;4.920;2022-12-05T04:44:01;5.53;;;3.50;;
59734;SDS011;64362;45.620;4.920;2022-12-05T04:46:29;5.15;;;3.97;;
59734;SDS011;64362;45.620;4.920;2022-12-05T04:48:56;5.82;;;3.90;;
59734;SDS011;64362;45.620;4.920;2022-12-05T04:51:23;6.43;;;3.92;;
59734;SDS011;64362;45.620;4.920;2022-12-05T04:53:55;5.05;;;4.32;;
59734;SDS011;64362;45.620;4.920;2022-12-05T04:56:23;6.32;;;4.30;;
59734;SDS011;64362;45.620;4.920;2022-12-05T04:58:52;5.63;;;4.00;;
59734;SDS011;64362;45.620;4.920;2022-12-05T05:01:24;5.90;;;4.03;;
59734;SDS011;64362;45.620;4.920;2022-12-05T05:03:53;6.32;;;4.28;;
59734;SDS011;64362;45.620;4.920;2022-12-05T05:06:22;5.88;;;3.92;;
59734;SDS011;64362;45.620;4.920;2022-12-05T05:08:51;7.35;;;3.92;;
59734;SDS011;64362;45.620;4.920;2022-12-05T05:11:19;5.97;;;4.10;;
59734;SDS011;64362;45.620;4.920;2022-12-05T05:13:45;6.13;;;4.03;;
59734;SDS011;64362;45.620;4.920;2022-12-05T05:16:12;6.70;;;4.30;;
59734;SDS011;64362;45.620;4.920;2022-12-05T05:18:43;6.65;;;4.32;;
59734;SDS011;64362;45.620;4.920;2022-12-05T05:21:26;6.55;;;3.72;;
59734;SDS011;64362;45.620;4.920;2022-12-05T05:23:51;6.20;;;3.67;;
59734;SDS011;64362;45.620;4.920;2022-12-05T05:26:17;6.30;;;4.10;;
59734;SDS011;64362;45.620;4.920;2022-12-05T05:28:44;6.57;;;4.00;;
59734;SDS011;64362;45.620;4.920;2022-12-05T05:31:10;6.32;;;3.85;;
59734;SDS011;64362;45.620;4.920;2022-12-05T05:33:35;5.50;;;3.60;;
59734;SDS011;64362;45.620;4.920;2022-12-05T05:36:02;7.20;;;3.88;;
59734;SDS011;64362;45.620;4.920;2022-12-05T05:38:35;5.95;;;3.70;;
59734;SDS011;64362;45.620;4.920;2022-12-05T05:41:01;5.78;;;3.80;;
59734;SDS011;64362;45.620;4.920;2022-12-05T05:43:27;6.13;;;3.50;;
59734;SDS011;64362;45.620;4.920;2022-12-05T05:45:52;5.88;;;3.17;;
59734;SDS011;64362;45.620;4.920;2022-12-05T05:48:18;5.35;;;3.50;;
59734;SDS011;64362;45.620;4.920;2022-12-05T05:50:43;6.53;;;3.45;;
59734;SDS011;64362;45.620;4.920;2022-12-05T05:53:09;4.72;;;3.15;;
59734;SDS011;64362;45.620;4.920;2022-12-05T05:55:37;5.82;;;3.75;;
59734;SDS011;64362;45.620;4.920;2022-12-05T05:58:04;4.88;;;3.30;;
59734;SDS011;64362;45.620;4.920;2022-12-05T06:00:30;5.18;;;3.28;;
59734;SDS011;64362;45.620;4.920;2022-12-05T06:02:55;4.50;;;3.30;;
59734;SDS011;64362;45.620;4.920;2022-12-05T06:05:20;4.90;;;2.83;;
59734;SDS011;64362;45.620;4.920;2022-12-05T06:07:46;4.55;;;3.55;;
59734;SDS011;64362;45.620;4.920;2022-12-05T06:10:11;4.55;;;3.08;;
59734;SDS011;64362;45.620;4.920;2022-12-05T06:12:37;5.40;;;3.25;;
59734;SDS011;64362;45.620;4.920;2022-12-05T06:15:02;6.45;;;3.72;;
59734;SDS011;64362;45.620;4.920;2022-12-05T06:17:29;4.90;;;3.20;;
59734;SDS011;64362;45.620;4.920;2022-12-05T06:19:54;4.10;;;3.30;;
59734;SDS011;64362;45.620;4.920;2022-12-05T06:22:20;5.30;;;3.10;;
59734;SDS011;64362;45.620;4.920;2022-12-05T06:24:45;5.68;;;3.20;;
59734;SDS011;64362;45.620;4.920;2022-12-05T06:27:11;4.70;;;3.20;;
59734;SDS011;64362;45.620;4.920;2022-12-05T06:29:36;4.43;;;2.85;;
59734;SDS011;64362;45.620;4.920;2022-12-05T06:32:02;5.90;;;3.58;;
59734;SDS011;64362;45.620;4.920;2022-12-05T06:34:27;4.95;;;3.60;;
59734;SDS011;64362;45.620;4.920;2022-12-05T06:36:53;4.63;;;3.70;;
59734;SDS011;64362;45.620;4.920;2022-12-05T06:39:19;6.85;;;3.78;;
59734;SDS011;64362;45.620;4.920;2022-12-05T06:41:44;6.13;;;3.85;;
59734;SDS011;64362;45.620;4.920;2022-12-05T06:44:09;6.57;;;3.90;;
59734;SDS011;64362;45.620;4.920;2022-12-05T06:46:35;6.38;;;3.63;;
59734;SDS011;64362;45.620;4.920;2022-12-05T06:49:01;7.00;;;3.80;;
59734;SDS011;64362;45.620;4.920;2022-12-05T06:51:26;6.68;;;3.85;;
59734;SDS011;64362;45.620;4.920;2022-12-05T06:53:51;8.43;;;3.88;;
59734;SDS011;64362;45.620;4.920;2022-12-05T06:56:18;9.23;;;4.22;;
59734;SDS011;64362;45.620;4.920;2022-12-05T06:58:45;6.13;;;3.70;;
59734;SDS011;64362;45.620;4.920;2022-12-05T07:01:13;7.20;;;3.92;;
59734;SDS011;64362;45.620;4.920;2022-12-05T07:04:01;7.75;;;4.15;;
59734;SDS011;64362;45.620;4.920;2022-12-05T07:06:27;7.68;;;4.03;;
59734;SDS011;64362;45.620;4.920;2022-12-05T07:08:52;9.18;;;4.15;;
59734;SDS011;64362;45.620;4.920;2022-12-05T07:11:18;9.65;;;4.05;;
59734;SDS011;64362;45.620;4.920;2022-12-05T07:13:44;8.98;;;3.97;;
59734;SDS011;64362;45.620;4.920;2022-12-05T07:16:09;11.65;;;4.35;;
59734;SDS011;64362;45.620;4.920;2022-12-05T07:18:35;10.48;;;4.70;;
59734;SDS011;64362;45.620;4.920;2022-12-05T07:21:02;11.77;;;4.55;;
59734;SDS011;64362;45.620;4.920;2022-12-05T07:23:35;10.13;;;4.53;;
59734;SDS011;64362;45.620;4.920;2022-12-05T07:26:04;12.55;;;5.40;;
59734;SDS011;64362;45.620;4.920;2022-12-05T07:28:31;14.05;;;5.03;;
59734;SDS011;64362;45.620;4.920;2022-12-05T07:31:00;12.30;;;5.25;;
59734;SDS011;64362;45.620;4.920;2022-12-05T07:33:26;12.98;;;5.25;;
59734;SDS011;64362;45.620;4.920;2022-12-05T07:35:52;15.30;;;5.15;;
59734;SDS011;64362;45.620;4.920;2022-12-05T07:38:17;11.85;;;4.80;;
59734;SDS011;64362;45.620;4.920;2022-12-05T07:40:43;9.35;;;4.55;;
59734;SDS011;64362;45.620;4.920;2022-12-05T07:43:08;11.60;;;4.78;;
59734;SDS011;64362;45.620;4.920;2022-12-05T07:45:34;11.07;;;4.97;;
59734;SDS011;64362;45.620;4.920;2022-12-05T07:48:00;9.93;;;4.57;;
59734;SDS011;64362;45.620;4.920;2022-12-05T07:50:25;9.55;;;4.50;;
59734;SDS011;64362;45.620;4.920;2022-12-05T07:52:51;10.70;;;4.63;;
59734;SDS011;64362;45.620;4.920;2022-12-05T07:55:16;9.13;;;4.10;;
59734;SDS011;64362;45.620;4.920;2022-12-05T07:57:42;9.07;;;4.38;;
59734;SDS011;64362;45.620;4.920;2022-12-05T08:00:07;9.25;;;4.03;;
59734;SDS011;64362;45.620;4.920;2022-12-05T08:02:37;7.75;;;4.20;;
59734;SDS011;64362;45.620;4.920;2022-12-05T08:05:03;8.02;;;4.45;;
59734;SDS011;64362;45.620;4.920;2022-12-05T08:07:28;6.45;;;3.88;;
59734;SDS011;64362;45.620;4.920;2022-12-05T08:09:54;7.28;;;3.47;;
59734;SDS011;64362;45.620;4.920;2022-12-05T08:12:19;11.27;;;4.30;;
59734;SDS011;64362;45.620;4.920;2022-12-05T08:14:45;6.45;;;3.90;;
59734;SDS011;64362;45.620;4.920;2022-12-05T08:17:10;7.22;;;4.03;;
59734;SDS011;64362;45.620;4.920;2022-12-05T08:19:36;6.22;;;3.58;;
59734;SDS011;64362;45.620;4.920;2022-12-05T08:22:01;5.80;;;3.65;;
59734;SDS011;64362;45.620;4.920;2022-12-05T08:24:27;5.28;;;4.18;;
59734;SDS011;64362;45.620;4.920;2022-12-05T08:26:52;6.05;;;3.67;;
59734;SDS011;64362;45.620;4.920;2022-12-05T08:29:19;7.93;;;3.67;;
59734;SDS011;64362;45.620;4.920;2022-12-05T08:31:46;6.97;;;3.70;;
59734;SDS011;64362;45.620;4.920;2022-12-05T08:34:13;5.82;;;3.47;;
59734;SDS011;64362;45.620;4.920;2022-12-05T08:36:39;6.53;;;4.07;;
59734;SDS011;64362;45.620;4.920;2022-12-05T08:39:06;6.32;;;4.18;;
59734;SDS011;64362;45.620;4.920;2022-12-05T08:41:32;6.07;;;3.88;;
59734;SDS011;64362;45.620;4.920;2022-12-05T08:44:02;5.57;;;3.58;;
59734;SDS011;64362;45.620;4.920;2022-12-05T08:46:30;5.95;;;3.53;;
59734;SDS011;64362;45.620;4.920;2022-12-05T08:48:56;5.70;;;3.95;;
59734;SDS011;64362;45.620;4.920;2022-12-05T08:51:21;6.43;;;3.70;;
59734;SDS011;64362;45.620;4.920;2022-12-05T08:53:47;5.75;;;3.97;;
59734;SDS011;64362;45.620;4.920;2022-12-05T08:56:12;6.18;;;3.50;;
59734;SDS011;64362;45.620;4.920;2022-12-05T08:58:38;5.45;;;3.50;;
59734;SDS011;64362;45.620;4.920;2022-12-05T09:03:37;5.68;;;3.50;;
59734;SDS011;64362;45.620;4.920;2022-12-05T09:06:04;4.75;;;3.40;;
59734;SDS011;64362;45.620;4.920;2022-12-05T09:08:37;4.40;;;3.45;;
59734;SDS011;64362;45.620;4.920;2022-12-05T09:11:07;3.63;;;3.08;;
59734;SDS011;64362;45.620;4.920;2022-12-05T09:13:34;5.45;;;3.35;;
59734;SDS011;64362;45.620;4.920;2022-12-05T09:16:07;3.97;;;2.78;;
59734;SDS011;64362;45.620;4.920;2022-12-05T09:18:33;3.67;;;3.00;;
59734;SDS011;64362;45.620;4.920;2022-12-05T09:21:09;4.03;;;3.30;;
59734;SDS011;64362;45.620;4.920;2022-12-05T09:23:36;4.07;;;2.85;;
59734;SDS011;64362;45.620;4.920;2022-12-05T09:26:02;4.05;;;2.75;;
59734;SDS011;64362;45.620;4.920;2022-12-05T09:28:29;4.10;;;3.13;;
59734;SDS011;64362;45.620;4.920;2022-12-05T09:30:56;4.15;;;2.60;;
59734;SDS011;64362;45.620;4.920;2022-12-05T09:33:29;4.32;;;3.00;;
59734;SDS011;64362;45.620;4.920;2022-12-05T09:35:55;3.28;;;2.70;;
59734;SDS011;64362;45.620;4.920;2022-12-05T09:38:21;2.97;;;2.40;;
59734;SDS011;64362;45.620;4.920;2022-12-05T09:40:59;3.15;;;2.70;;
59734;SDS011;64362;45.620;4.920;2022-12-05T09:49:05;2.90;;;2.30;;
59734;SDS011;64362;45.620;4.920;2022-12-05T09:51:34;4.00;;;3.20;;
59734;SDS011;64362;45.620;4.920;2022-12-05T09:54:01;3.58;;;2.53;;
59734;SDS011;64362;45.620;4.920;2022-12-05T09:56:28;3.22;;;2.33;;
59734;SDS011;64362;45.620;4.920;2022-12-05T09:58:55;4.20;;;2.50;;
59734;SDS011;64362;45.620;4.920;2022-12-05T10:09:37;4.43;;;2.72;;
59734;SDS011;64362;45.620;4.920;2022-12-05T10:12:16;3.78;;;2.75;;
59734;SDS011;64362;45.620;4.920;2022-12-05T10:17:37;4.03;;;2.40;;
59734;SDS011;64362;45.620;4.920;2022-12-05T10:20:52;2.80;;;2.38;;
59734;SDS011;64362;45.620;4.920;2022-12-05T10:22:59;3.80;;;2.65;;
59734;SDS011;64362;45.620;4.920;2022-12-05T10:25:28;3.05;;;2.22;;
59734;SDS011;64362;45.620;4.920;2022-12-05T10:27:57;3.72;;;2.67;;
59734;SDS011;64362;45.620;4.920;2022-12-05T10:30:25;3.45;;;2.47;;
59734;SDS011;64362;45.620;4.920;2022-12-05T10:33:00;2.95;;;2.17;;
59734;SDS011;64362;45.620;4.920;2022-12-05T10:35:38;3.13;;;2.50;;
59734;SDS011;64362;45.620;4.920;2022-12-05T10:38:05;3.45;;;2.65;;
59734;SDS011;64362;45.620;4.920;2022-12-05T10:43:03;3.03;;;2.47;;
59734;SDS011;64362;45.620;4.920;2022-12-05T10:45:29;4.15;;;2.80;;
59734;SDS011;64362;45.620;4.920;2022-12-05T10:47:55;3.40;;;2.70;;
59734;SDS011;64362;45.620;4.920;2022-12-05T10:50:23;3.70;;;2.63;;
59734;SDS011;64362;45.620;4.920;2022-12-05T10:52:50;3.05;;;2.25;;
59734;SDS011;64362;45.620;4.920;2022-12-05T10:55:17;3.08;;;2.40;;
59734;SDS011;64362;45.620;4.920;2022-12-05T10:57:45;3.03;;;2.28;;
59734;SDS011;64362;45.620;4.920;2022-12-05T11:00:15;3.72;;;2.78;;
59734;SDS011;64362;45.620;4.920;2022-12-05T11:02:42;3.00;;;2.13;;
59734;SDS011;64362;45.620;4.920;2022-12-05T11:05:07;3.53;;;2.88;;
59734;SDS011;64362;45.620;4.920;2022-12-05T11:07:44;4.05;;;2.58;;
59734;SDS011;64362;45.620;4.920;2022-12-05T11:10:21;2.78;;;2.15;;
59734;SDS011;64362;45.620;4.920;2022-12-05T11:12:51;3.13;;;2.50;;
59734;SDS011;64362;45.620;4.920;2022-12-05T11:17:47;3.00;;;2.20;;
59734;SDS011;64362;45.620;4.920;2022-12-05T11:22:45;2.80;;;2.35;;
59734;SDS011;64362;45.620;4.920;2022-12-05T11:25:23;3.25;;;2.50;;
59734;SDS011;64362;45.620;4.920;2022-12-05T11:27:50;3.40;;;2.55;;
59734;SDS011;64362;45.620;4.920;2022-12-05T11:30:20;3.20;;;2.40;;
59734;SDS011;64362;45.620;4.920;2022-12-05T11:32:48;3.47;;;2.35;;
59734;SDS011;64362;45.620;4.920;2022-12-05T11:40:27;3.45;;;2.75;;
59734;SDS011;64362;45.620;4.920;2022-12-05T11:48:35;2.92;;;2.45;;
59734;SDS011;64362;45.620;4.920;2022-12-05T11:56:57;3.28;;;2.72;;
59734;SDS011;64362;45.620;4.920;2022-12-05T12:05:06;3.65;;;2.63;;
59734;SDS011;64362;45.620;4.920;2022-12-05T12:24:22;3.65;;;2.83;;
59734;SDS011;64362;45.620;4.920;2022-12-05T12:30:00;4.35;;;3.15;;
59734;SDS011;64362;45.620;4.920;2022-12-05T12:35:28;3.00;;;2.50;;
59734;SDS011;64362;45.620;4.920;2022-12-05T12:51:35;3.85;;;2.92;;
59734;SDS011;64362;45.620;4.920;2022-12-05T12:59:15;3.75;;;3.15;;
59734;SDS011;64362;45.620;4.920;2022-12-05T13:02:07;3.70;;;2.90;;
59734;SDS011;64362;45.620;4.920;2022-12-05T13:10:21;3.42;;;2.80;;
59734;SDS011;64362;45.620;4.920;2022-12-05T13:12:52;3.95;;;2.97;;
59734;SDS011;64362;45.620;4.920;2022-12-05T13:15:20;3.78;;;2.83;;
59734;SDS011;64362;45.620;4.920;2022-12-05T13:17:48;3.75;;;2.97;;
59734;SDS011;64362;45.620;4.920;2022-12-05T13:20:19;3.88;;;3.13;;
59734;SDS011;64362;45.620;4.920;2022-12-05T13:22:46;3.50;;;2.85;;
59734;SDS011;64362;45.620;4.920;2022-12-05T13:25:14;3.92;;;2.60;;
59734;SDS011;64362;45.620;4.920;2022-12-05T13:27:40;4.05;;;2.80;;
59734;SDS011;64362;45.620;4.920;2022-12-05T13:30:18;3.45;;;2.58;;
59734;SDS011;64362;45.620;4.920;2022-12-05T13:32:43;3.40;;;2.92;;
59734;SDS011;64362;45.620;4.920;2022-12-05T13:35:17;3.40;;;2.85;;
59734;SDS011;64362;45.620;4.920;2022-12-05T13:38:02;3.60;;;2.70;;
59734;SDS011;64362;45.620;4.920;2022-12-05T13:44:02;3.90;;;2.92;;
59734;SDS011;64362;45.620;4.920;2022-12-05T13:46:42;4.25;;;3.28;;
59734;SDS011;64362;45.620;4.920;2022-12-05T13:49:17;3.40;;;2.60;;
59734;SDS011;64362;45.620;4.920;2022-12-05T13:51:47;4.07;;;2.90;;
59734;SDS011;64362;45.620;4.920;2022-12-05T13:56:50;3.28;;;2.58;;
59734;SDS011;64362;45.620;4.920;2022-12-05T14:03:05;3.60;;;2.70;;
59734;SDS011;64362;45.620;4.920;2022-12-05T14:07:39;2.78;;;2.28;;
59734;SDS011;64362;45.620;4.920;2022-12-05T14:10:10;4.10;;;2.63;;
59734;SDS011;64362;45.620;4.920;2022-12-05T14:25:37;3.77;;;3.00;;
59734;SDS011;64362;45.620;4.920;2022-12-05T14:28:13;3.03;;;2.58;;
59734;SDS011;64362;45.620;4.920;2022-12-05T14:30:43;3.03;;;2.40;;
59734;SDS011;64362;45.620;4.920;2022-12-05T14:33:23;2.90;;;2.22;;
59734;SDS011;64362;45.620;4.920;2022-12-05T14:35:50;3.03;;;2.72;;
59734;SDS011;64362;45.620;4.920;2022-12-05T14:38:26;3.45;;;2.53;;
59734;SDS011;64362;45.620;4.920;2022-12-05T14:40:53;3.13;;;2.50;;
59734;SDS011;64362;45.620;4.920;2022-12-05T14:43:31;4.43;;;2.55;;
59734;SDS011;64362;45.620;4.920;2022-12-05T14:45:58;3.42;;;2.60;;
59734;SDS011;64362;45.620;4.920;2022-12-05T14:51:01;2.90;;;2.60;;
59734;SDS011;64362;45.620;4.920;2022-12-05T15:03:54;3.25;;;2.65;;
59734;SDS011;64362;45.620;4.920;2022-12-05T15:06:27;3.25;;;2.45;;
59734;SDS011;64362;45.620;4.920;2022-12-05T15:08:54;3.45;;;2.28;;
59734;SDS011;64362;45.620;4.920;2022-12-05T15:11:22;3.65;;;2.40;;
59734;SDS011;64362;45.620;4.920;2022-12-05T15:13:55;3.15;;;2.20;;
59734;SDS011;64362;45.620;4.920;2022-12-05T15:16:24;2.72;;;2.05;;
59734;SDS011;64362;45.620;4.920;2022-12-05T15:18:54;3.33;;;2.50;;
59734;SDS011;64362;45.620;4.920;2022-12-05T15:24:02;3.05;;;2.40;;
59734;SDS011;64362;45.620;4.920;2022-12-05T15:29:05;3.80;;;2.55;;
59734;SDS011;64362;45.620;4.920;2022-12-05T15:31:33;2.90;;;2.10;;
59734;SDS011;64362;45.620;4.920;2022-12-05T15:34:03;3.00;;;2.35;;
59734;SDS011;64362;45.620;4.920;2022-12-05T15:36:33;3.33;;;2.08;;
59734;SDS011;64362;45.620;4.920;2022-12-05T15:39:05;3.28;;;2.47;;
59734;SDS011;64362;45.620;4.920;2022-12-05T15:41:31;4.57;;;2.40;;
59734;SDS011;64362;45.620;4.920;2022-12-05T15:43:57;3.92;;;2.80;;
59734;SDS011;64362;45.620;4.920;2022-12-05T15:46:24;3.53;;;2.78;;
59734;SDS011;64362;45.620;4.920;2022-12-05T15:48:52;3.90;;;2.60;;
59734;SDS011;64362;45.620;4.920;2022-12-05T15:51:19;4.97;;;2.90;;
59734;SDS011;64362;45.620;4.920;2022-12-05T15:53:50;4.18;;;3.08;;
59734;SDS011;64362;45.620;4.920;2022-12-05T15:56:20;4.20;;;2.65;;
59734;SDS011;64362;45.620;4.920;2022-12-05T15:58:50;4.18;;;2.70;;
59734;SDS011;64362;45.620;4.920;2022-12-05T16:01:24;5.20;;;3.20;;
59734;SDS011;64362;45.620;4.920;2022-12-05T16:09:04;4.80;;;3.08;;
59734;SDS011;64362;45.620;4.920;2022-12-05T16:11:37;4.97;;;2.83;;
59734;SDS011;64362;45.620;4.920;2022-12-05T16:14:03;4.55;;;2.97;;
59734;SDS011;64362;45.620;4.920;2022-12-05T16:16:31;4.95;;;2.97;;
59734;SDS011;64362;45.620;4.920;2022-12-05T16:19:32;4.70;;;2.90;;
59734;SDS011;64362;45.620;4.920;2022-12-05T16:24:32;4.70;;;2.97;;
59734;SDS011;64362;45.620;4.920;2022-12-05T16:32:38;5.07;;;3.00;;
59734;SDS011;64362;45.620;4.920;2022-12-05T16:38:12;5.15;;;3.15;;
59734;SDS011;64362;45.620;4.920;2022-12-05T16:43:13;5.53;;;3.15;;
59734;SDS011;64362;45.620;4.920;2022-12-05T16:45:43;5.45;;;3.42;;
59734;SDS011;64362;45.620;4.920;2022-12-05T16:48:13;4.53;;;3.00;;
59734;SDS011;64362;45.620;4.920;2022-12-05T16:50:52;4.53;;;2.90;;
59734;SDS011;64362;45.620;4.920;2022-12-05T16:53:50;5.13;;;3.15;;
59734;SDS011;64362;45.620;4.920;2022-12-05T16:58:49;4.18;;;2.85;;
59734;SDS011;64362;45.620;4.920;2022-12-05T17:01:23;4.32;;;2.60;;
59734;SDS011;64362;45.620;4.920;2022-12-05T17:03:50;4.88;;;3.00;;
59734;SDS011;64362;45.620;4.920;2022-12-05T17:06:17;3.83;;;2.50;;
59734;SDS011;64362;45.620;4.920;2022-12-05T17:08:43;4.60;;;3.00;;
59734;SDS011;64362;45.620;4.920;2022-12-05T17:11:16;3.65;;;2.65;;
59734;SDS011;64362;45.620;4.920;2022-12-05T17:13:43;4.95;;;2.90;;
59734;SDS011;64362;45.620;4.920;2022-12-05T17:16:11;3.70;;;2.72;;
59734;SDS011;64362;45.620;4.920;2022-12-05T17:18:37;4.10;;;2.47;;
59734;SDS011;64362;45.620;4.920;2022-12-05T17:21:02;4.20;;;2.45;;
59734;SDS011;64362;45.620;4.920;2022-12-05T17:23:28;4.22;;;2.40;;
59734;SDS011;64362;45.620;4.920;2022-12-05T17:25:54;4.47;;;2.90;;
59734;SDS011;64362;45.620;4.920;2022-12-05T17:28:21;4.90;;;2.70;;
59734;SDS011;64362;45.620;4.920;2022-12-05T17:30:47;5.07;;;3.25;;
59734;SDS011;64362;45.620;4.920;2022-12-05T17:33:13;8.55;;;2.67;;
59734;SDS011;64362;45.620;4.920;2022-12-05T17:35:40;6.60;;;2.78;;
59734;SDS011;64362;45.620;4.920;2022-12-05T17:38:05;4.70;;;2.90;;
59734;SDS011;64362;45.620;4.920;2022-12-05T17:40:31;8.77;;;3.20;;
59734;SDS011;64362;45.620;4.920;2022-12-05T17:42:57;5.10;;;2.90;;
59734;SDS011;64362;45.620;4.920;2022-12-05T17:45:23;8.20;;;2.92;;
59734;SDS011;64362;45.620;4.920;2022-12-05T17:47:49;6.40;;;2.92;;
59734;SDS011;64362;45.620;4.920;2022-12-05T17:50:16;9.02;;;3.05;;
59734;SDS011;64362;45.620;4.920;2022-12-05T17:52:43;6.28;;;2.90;;
59734;SDS011;64362;45.620;4.920;2022-12-05T17:57:42;10.02;;;3.22;;
59734;SDS011;64362;45.620;4.920;2022-12-05T18:00:09;7.93;;;3.42;;
59734;SDS011;64362;45.620;4.920;2022-12-05T18:02:36;8.70;;;3.03;;
59734;SDS011;64362;45.620;4.920;2022-12-05T18:05:01;6.63;;;3.10;;
59734;SDS011;64362;45.620;4.920;2022-12-05T18:07:27;7.68;;;3.30;;
59734;SDS011;64362;45.620;4.920;2022-12-05T18:10:55;7.63;;;3.40;;
59734;SDS011;64362;45.620;4.920;2022-12-05T18:13:31;10.25;;;3.20;;
59734;SDS011;64362;45.620;4.920;2022-12-05T18:15:57;4.93;;;2.65;;
59734;SDS011;64362;45.620;4.920;2022-12-05T18:18:23;8.32;;;3.20;;
59734;SDS011;64362;45.620;4.920;2022-12-05T18:20:51;9.95;;;3.60;;
59734;SDS011;64362;45.620;4.920;2022-12-05T18:23:17;10.98;;;3.92;;
59734;SDS011;64362;45.620;4.920;2022-12-05T18:25:43;11.30;;;3.42;;
59734;SDS011;64362;45.620;4.920;2022-12-05T18:28:15;12.70;;;3.65;;
59734;SDS011;64362;45.620;4.920;2022-12-05T18:30:40;15.20;;;4.70;;
59734;SDS011;64362;45.620;4.920;2022-12-05T18:33:14;14.35;;;4.68;;
59734;SDS011;64362;45.620;4.920;2022-12-05T18:35:39;10.63;;;4.00;;
59734;SDS011;64362;45.620;4.920;2022-12-05T18:38:12;10.02;;;4.63;;